sensor_id;sensor_type;location;lat;lon;timestamp;pressure;altitude;pressure_sealevel;temperature;humidity
34370;BME280;20635;55.812;37.560;2022-12-10T00:00:54;99310.28;;;25.44;35.90
34370;BME280;20635;55.812;37.560;2022-12-10T00:03:20;99306.63;;;25.43;35.60
34370;BME280;20635;55.812;37.560;2022-12-10T00:05:46;99309.44;;;25.43;35.77
34370;BME280;20635;55.812;37.560;2022-12-10T00:08:12;99303.50;;;25.45;36.05
34370;BME280;20635;55.812;37.560;2022-12-10T00:10:41;99309.94;;;25.45;35.54
34370;BME280;20635;55.812;37.560;2022-12-10T00:13:07;99313.53;;;25.46;36.18
34370;BME280;20635;55.812;37.560;2022-12-10T00:15:35;99310.75;;;25.46;35.68
34370;BME280;20635;55.812;37.560;2022-12-10T00:18:01;99319.97;;;25.46;35.70
34370;BME280;20635;55.812;37.560;2022-12-10T00:20:27;99313.53;;;25.46;36.24
34370;BME280;20635;55.812;37.560;2022-12-10T00:22:53;99302.31;;;25.46;35.94
34370;BME280;20635;55.812;37.560;2022-12-10T00:25:19;99299.16;;;25.47;36.03
34370;BME280;20635;55.812;37.560;2022-12-10T00:27:45;99307.59;;;25.47;35.85
34370;BME280;20635;55.812;37.560;2022-12-10T00:30:11;99298.03;;;25.48;35.77
34370;BME280;20635;55.812;37.560;2022-12-10T00:32:37;99301.66;;;25.49;35.80
34370;BME280;20635;55.812;37.560;2022-12-10T00:35:03;99296.88;;;25.49;36.01
34370;BME280;20635;55.812;37.560;2022-12-10T00:37:29;99296.88;;;25.49;35.68
34370;BME280;20635;55.812;37.560;2022-12-10T00:39:55;99299.66;;;25.49;35.74
34370;BME280;20635;55.812;37.560;2022-12-10T00:42:21;99285.63;;;25.49;36.22
34370;BME280;20635;55.812;37.560;2022-12-10T00:44:47;99291.25;;;25.49;35.76
34370;BME280;20635;55.812;37.560;2022-12-10T00:47:13;99276.06;;;25.50;35.96
34370;BME280;20635;55.812;37.560;2022-12-10T00:49:39;99270.44;;;25.50;35.54
34370;BME280;20635;55.812;37.560;2022-12-10T00:52:05;99269.28;;;25.51;35.84
34370;BME280;20635;55.812;37.560;2022-12-10T00:54:31;99276.50;;;25.52;35.54
34370;BME280;20635;55.812;37.560;2022-12-10T00:59:41;99278.19;;;25.53;35.65
34370;BME280;20635;55.812;37.560;2022-12-10T01:02:08;99299.44;;;25.54;35.77
34370;BME280;20635;55.812;37.560;2022-12-10T01:04:35;99284.25;;;25.55;35.83
34370;BME280;20635;55.812;37.560;2022-12-10T01:07:05;99276.66;;;25.56;36.10
34370;BME280;20635;55.812;37.560;2022-12-10T01:09:34;99253.03;;;25.57;36.43
34370;BME280;20635;55.812;37.560;2022-12-10T01:12:01;99249.41;;;25.56;36.22
34370;BME280;20635;55.812;37.560;2022-12-10T01:14:30;99250.59;;;25.55;36.26
34370;BME280;20635;55.812;37.560;2022-12-10T01:17:00;99255.03;;;25.56;35.65
34370;BME280;20635;55.812;37.560;2022-12-10T01:19:28;99255.84;;;25.57;35.93
34370;BME280;20635;55.812;37.560;2022-12-10T01:21:55;99261.47;;;25.57;35.79
34370;BME280;20635;55.812;37.560;2022-12-10T01:24:26;99257.16;;;25.60;36.33
34370;BME280;20635;55.812;37.560;2022-12-10T01:26:52;99259.50;;;25.58;36.53
34370;BME280;20635;55.812;37.560;2022-12-10T01:29:20;99259.50;;;25.58;36.14
34370;BME280;20635;55.812;37.560;2022-12-10T01:31:50;99246.28;;;25.58;36.40
34370;BME280;20635;55.812;37.560;2022-12-10T01:34:16;99249.09;;;25.58;36.40
34370;BME280;20635;55.812;37.560;2022-12-10T01:36:45;99251.91;;;25.58;36.46
34370;BME280;20635;55.812;37.560;2022-12-10T01:39:14;99255.53;;;25.59;36.29
34370;BME280;20635;55.812;37.560;2022-12-10T01:42:03;99254.34;;;25.60;36.30
34370;BME280;20635;55.812;37.560;2022-12-10T01:46:58;99254.69;;;25.58;36.83
34370;BME280;20635;55.812;37.560;2022-12-10T01:49:32;99247.91;;;25.59;36.61
34370;BME280;20635;55.812;37.560;2022-12-10T01:51:58;99254.69;;;25.58;36.07
34370;BME280;20635;55.812;37.560;2022-12-10T01:54:30;99251.91;;;25.58;36.60
34370;BME280;20635;55.812;37.560;2022-12-10T01:57:08;99256.34;;;25.59;36.59
34370;BME280;20635;55.812;37.560;2022-12-10T01:59:36;99257.50;;;25.58;36.49
34370;BME280;20635;55.812;37.560;2022-12-10T02:05:17;99269.53;;;25.59;36.69
34370;BME280;20635;55.812;37.560;2022-12-10T02:08:22;99264.06;;;25.62;36.51
34370;BME280;20635;55.812;37.560;2022-12-10T02:13:40;99256.34;;;25.59;36.64
34370;BME280;20635;55.812;37.560;2022-12-10T02:16:13;99254.34;;;25.60;36.35
34370;BME280;20635;55.812;37.560;2022-12-10T02:18:50;99266.38;;;25.60;36.48
34370;BME280;20635;55.812;37.560;2022-12-10T02:21:24;99265.94;;;25.58;36.38
34370;BME280;20635;55.812;37.560;2022-12-10T02:23:57;99269.53;;;25.59;36.78
34370;BME280;20635;55.812;37.560;2022-12-10T02:29:09;99249.91;;;25.59;36.50
34370;BME280;20635;55.812;37.560;2022-12-10T02:31:42;99249.91;;;25.59;36.44
34370;BME280;20635;55.812;37.560;2022-12-10T02:34:09;99250.50;;;25.64;36.40
34370;BME280;20635;55.812;37.560;2022-12-10T02:36:38;99252.38;;;25.60;36.41
34370;BME280;20635;55.812;37.560;2022-12-10T02:39:10;99251.91;;;25.58;36.47
34370;BME280;20635;55.812;37.560;2022-12-10T02:41:51;99251.53;;;25.60;36.46
34370;BME280;20635;55.812;37.560;2022-12-10T02:44:18;99237.88;;;25.58;36.01
34370;BME280;20635;55.812;37.560;2022-12-10T02:46:47;99245.13;;;25.59;36.38
34370;BME280;20635;55.812;37.560;2022-12-10T02:49:16;99235.38;;;25.56;36.27
34370;BME280;20635;55.812;37.560;2022-12-10T02:51:43;99237.06;;;25.58;36.02
34370;BME280;20635;55.812;37.560;2022-12-10T02:57:35;99230.41;;;25.62;36.00
34370;BME280;20635;55.812;37.560;2022-12-10T03:00:23;99238.81;;;25.62;35.92
34370;BME280;20635;55.812;37.560;2022-12-10T03:03:28;99215.19;;;25.63;36.22
34370;BME280;20635;55.812;37.560;2022-12-10T03:11:17;99224.66;;;25.59;36.02
34370;BME280;20635;55.812;37.560;2022-12-10T03:14:09;99225.13;;;25.61;36.15
34370;BME280;20635;55.812;37.560;2022-12-10T03:16:42;99228.28;;;25.59;36.36
34370;BME280;20635;55.812;37.560;2022-12-10T03:19:16;99224.66;;;25.59;35.97
34370;BME280;20635;55.812;37.560;2022-12-10T03:21:45;99210.94;;;25.57;35.83
34370;BME280;20635;55.812;37.560;2022-12-10T03:24:13;99229.78;;;25.56;35.81
34370;BME280;20635;55.812;37.560;2022-12-10T03:26:41;99224.97;;;25.57;35.49
34370;BME280;20635;55.812;37.560;2022-12-10T03:29:09;99218.56;;;25.56;36.09
34370;BME280;20635;55.812;37.560;2022-12-10T03:31:39;99230.28;;;25.59;35.68
34370;BME280;20635;55.812;37.560;2022-12-10T03:34:07;99225.34;;;25.55;36.03
34370;BME280;20635;55.812;37.560;2022-12-10T03:36:36;99220.53;;;25.56;35.87
34370;BME280;20635;55.812;37.560;2022-12-10T03:39:03;99218.56;;;25.56;36.08
34370;BME280;20635;55.812;37.560;2022-12-10T03:41:31;99210.50;;;25.55;36.06
34370;BME280;20635;55.812;37.560;2022-12-10T03:43:58;99231.75;;;25.56;36.17
34370;BME280;20635;55.812;37.560;2022-12-10T03:46:27;99241.00;;;25.56;36.07
34370;BME280;20635;55.812;37.560;2022-12-10T03:48:54;99233.75;;;25.55;36.22
34370;BME280;20635;55.812;37.560;2022-12-10T03:51:20;99228.16;;;25.55;36.29
34370;BME280;20635;55.812;37.560;2022-12-10T03:53:46;99236.56;;;25.55;36.49
34370;BME280;20635;55.812;37.560;2022-12-10T03:56:14;99230.94;;;25.55;36.62
34370;BME280;20635;55.812;37.560;2022-12-10T03:58:43;99233.75;;;25.55;36.52
34370;BME280;20635;55.812;37.560;2022-12-10T04:01:09;99221.72;;;25.55;36.81
34370;BME280;20635;55.812;37.560;2022-12-10T04:03:39;99225.34;;;25.55;36.53
34370;BME280;20635;55.812;37.560;2022-12-10T04:06:12;99225.34;;;25.55;36.38
34370;BME280;20635;55.812;37.560;2022-12-10T04:08:38;99215.28;;;25.54;36.36
34370;BME280;20635;55.812;37.560;2022-12-10T04:11:08;99229.31;;;25.54;36.15
34370;BME280;20635;55.812;37.560;2022-12-10T04:13:35;99221.72;;;25.55;36.40
34370;BME280;20635;55.812;37.560;2022-12-10T04:16:20;99225.69;;;25.54;36.55
34370;BME280;20635;55.812;37.560;2022-12-10T04:18:58;99231.75;;;25.56;35.97
34370;BME280;20635;55.812;37.560;2022-12-10T04:21:26;99218.44;;;25.53;36.12
34370;BME280;20635;55.812;37.560;2022-12-10T04:24:11;99232.94;;;25.55;36.48
34370;BME280;20635;55.812;37.560;2022-12-10T04:26:58;99237.72;;;25.54;36.68
34370;BME280;20635;55.812;37.560;2022-12-10T04:29:26;99244.50;;;25.53;36.67
34370;BME280;20635;55.812;37.560;2022-12-10T04:31:54;99237.25;;;25.52;36.84
34370;BME280;20635;55.812;37.560;2022-12-10T04:34:20;99239.22;;;25.52;36.69
34370;BME280;20635;55.812;37.560;2022-12-10T04:36:47;99237.25;;;25.52;36.69
34370;BME280;20635;55.812;37.560;2022-12-10T04:39:13;99241.22;;;25.51;36.49
34370;BME280;20635;55.812;37.560;2022-12-10T04:41:42;99236.41;;;25.52;36.36
34370;BME280;20635;55.812;37.560;2022-12-10T04:44:08;99232.81;;;25.51;36.40
34370;BME280;20635;55.812;37.560;2022-12-10T04:46:34;99230.00;;;25.51;36.44
34370;BME280;20635;55.812;37.560;2022-12-10T04:49:01;99227.19;;;25.51;36.40
34370;BME280;20635;55.812;37.560;2022-12-10T04:51:27;99218.78;;;25.51;36.37
34370;BME280;20635;55.812;37.560;2022-12-10T04:53:53;99223.94;;;25.49;36.74
34370;BME280;20635;55.812;37.560;2022-12-10T04:56:18;99233.97;;;25.50;36.12
34370;BME280;20635;55.812;37.560;2022-12-10T04:58:45;99228.38;;;25.50;36.21
34370;BME280;20635;55.812;37.560;2022-12-10T05:01:11;99227.53;;;25.50;36.27
34370;BME280;20635;55.812;37.560;2022-12-10T05:03:38;99223.94;;;25.49;36.68
34370;BME280;20635;55.812;37.560;2022-12-10T05:06:06;99215.16;;;25.51;36.38
34370;BME280;20635;55.812;37.560;2022-12-10T05:08:34;99213.53;;;25.50;36.49
34370;BME280;20635;55.812;37.560;2022-12-10T05:11:06;99215.16;;;25.51;36.42
34370;BME280;20635;55.812;37.560;2022-12-10T05:13:32;99213.75;;;25.57;36.22
34370;BME280;20635;55.812;37.560;2022-12-10T05:16:01;99214.78;;;25.52;36.76
34370;BME280;20635;55.812;37.560;2022-12-10T05:18:27;99219.94;;;25.50;36.74
34370;BME280;20635;55.812;37.560;2022-12-10T05:20:53;99221.13;;;25.49;36.67
34370;BME280;20635;55.812;37.560;2022-12-10T05:23:19;99223.94;;;25.49;36.39
34370;BME280;20635;55.812;37.560;2022-12-10T05:26:04;99225.56;;;25.50;36.34
34370;BME280;20635;55.812;37.560;2022-12-10T05:28:33;99215.50;;;25.49;36.43
34370;BME280;20635;55.812;37.560;2022-12-10T05:30:59;99218.63;;;25.48;36.55
34370;BME280;20635;55.812;37.560;2022-12-10T05:33:26;99221.13;;;25.49;36.52
34370;BME280;20635;55.812;37.560;2022-12-10T05:36:00;99221.94;;;25.50;36.59
34370;BME280;20635;55.812;37.560;2022-12-10T05:38:27;99217.50;;;25.49;35.99
34370;BME280;20635;55.812;37.560;2022-12-10T05:40:53;99219.47;;;25.48;35.66
34370;BME280;20635;55.812;37.560;2022-12-10T05:43:20;99221.44;;;25.48;36.30
34370;BME280;20635;55.812;37.560;2022-12-10T05:45:46;99224.25;;;25.48;36.57
34370;BME280;20635;55.812;37.560;2022-12-10T05:48:14;99232.66;;;25.48;36.45
34370;BME280;20635;55.812;37.560;2022-12-10T05:50:41;99237.47;;;25.47;36.42
34370;BME280;20635;55.812;37.560;2022-12-10T05:53:07;99233.03;;;25.46;36.68
34370;BME280;20635;55.812;37.560;2022-12-10T05:55:33;99228.22;;;25.47;36.83
34370;BME280;20635;55.812;37.560;2022-12-10T05:57:59;99231.84;;;25.47;36.86
34370;BME280;20635;55.812;37.560;2022-12-10T06:00:28;99227.06;;;25.48;36.78
34370;BME280;20635;55.812;37.560;2022-12-10T06:02:54;99220.63;;;25.47;37.07
34370;BME280;20635;55.812;37.560;2022-12-10T06:05:21;99219.81;;;25.47;37.06
34370;BME280;20635;55.812;37.560;2022-12-10T06:07:47;99214.19;;;25.47;36.82
34370;BME280;20635;55.812;37.560;2022-12-10T06:10:13;99220.63;;;25.47;36.73
34370;BME280;20635;55.812;37.560;2022-12-10T06:12:39;99209.75;;;25.46;37.09
34370;BME280;20635;55.812;37.560;2022-12-10T06:15:05;99214.19;;;25.47;37.21
34370;BME280;20635;55.812;37.560;2022-12-10T06:17:31;99213.38;;;25.46;36.86
34370;BME280;20635;55.812;37.560;2022-12-10T06:19:58;99206.97;;;25.46;37.10
34370;BME280;20635;55.812;37.560;2022-12-10T06:22:24;99212.56;;;25.46;37.13
34370;BME280;20635;55.812;37.560;2022-12-10T06:24:50;99215.38;;;25.46;37.23
34370;BME280;20635;55.812;37.560;2022-12-10T06:27:16;99213.38;;;25.46;37.11
34370;BME280;20635;55.812;37.560;2022-12-10T06:29:42;99210.56;;;25.46;37.39
34370;BME280;20635;55.812;37.560;2022-12-10T06:32:08;99207.78;;;25.46;37.85
34370;BME280;20635;55.812;37.560;2022-12-10T06:34:33;99220.16;;;25.45;37.63
34370;BME280;20635;55.812;37.560;2022-12-10T06:36:59;99206.13;;;25.45;37.39
34370;BME280;20635;55.812;37.560;2022-12-10T06:39:25;99208.59;;;25.47;36.88
34370;BME280;20635;55.812;37.560;2022-12-10T06:41:51;99197.03;;;25.48;36.38
34370;BME280;20635;55.812;37.560;2022-12-10T06:44:17;99191.06;;;25.50;36.16
34370;BME280;20635;55.812;37.560;2022-12-10T06:46:43;99199.94;;;25.52;36.07
34370;BME280;20635;55.812;37.560;2022-12-10T06:49:09;99201.63;;;25.53;35.95
34370;BME280;20635;55.812;37.560;2022-12-10T06:51:35;99204.06;;;25.54;35.78
34370;BME280;20635;55.812;37.560;2022-12-10T06:54:04;99204.53;;;25.56;35.50
34370;BME280;20635;55.812;37.560;2022-12-10T06:56:30;99208.63;;;25.59;35.24
34370;BME280;20635;55.812;37.560;2022-12-10T06:58:56;99199.41;;;25.59;35.29
34370;BME280;20635;55.812;37.560;2022-12-10T07:01:24;99200.69;;;25.61;34.99
34370;BME280;20635;55.812;37.560;2022-12-10T07:03:55;99202.81;;;25.64;34.93
34370;BME280;20635;55.812;37.560;2022-12-10T07:06:22;99207.25;;;25.65;34.93
34370;BME280;20635;55.812;37.560;2022-12-10T07:08:50;99201.31;;;25.67;34.66
34370;BME280;20635;55.812;37.560;2022-12-10T07:11:21;99208.19;;;25.69;34.58
34370;BME280;20635;55.812;37.560;2022-12-10T07:13:47;99205.06;;;25.71;34.50
34370;BME280;20635;55.812;37.560;2022-12-10T07:16:23;99196.66;;;25.71;34.41
34370;BME280;20635;55.812;37.560;2022-12-10T07:18:51;99199.09;;;25.72;34.29
34370;BME280;20635;55.812;37.560;2022-12-10T07:21:23;99202.38;;;25.74;34.34
34370;BME280;20635;55.812;37.560;2022-12-10T07:23:51;99211.31;;;25.76;33.88
34370;BME280;20635;55.812;37.560;2022-12-10T07:26:20;99202.06;;;25.76;33.92
34370;BME280;20635;55.812;37.560;2022-12-10T07:28:46;99214.56;;;25.78;34.05
34370;BME280;20635;55.812;37.560;2022-12-10T07:31:12;99210.59;;;25.79;34.03
34370;BME280;20635;55.812;37.560;2022-12-10T07:33:37;99213.06;;;25.81;33.75
34370;BME280;20635;55.812;37.560;2022-12-10T07:36:08;99206.28;;;25.82;33.72
34370;BME280;20635;55.812;37.560;2022-12-10T07:38:35;99210.72;;;25.83;33.58
34370;BME280;20635;55.812;37.560;2022-12-10T07:41:08;99217.97;;;25.84;33.57
34370;BME280;20635;55.812;37.560;2022-12-10T07:43:40;99213.66;;;25.87;33.56
34370;BME280;20635;55.812;37.560;2022-12-10T07:46:10;99211.66;;;25.87;33.67
34370;BME280;20635;55.812;37.560;2022-12-10T07:48:38;99208.88;;;25.87;33.49
34370;BME280;20635;55.812;37.560;2022-12-10T07:51:04;99201.63;;;25.86;33.46
34370;BME280;20635;55.812;37.560;2022-12-10T07:53:31;99205.25;;;25.87;33.39
34370;BME280;20635;55.812;37.560;2022-12-10T07:55:57;99199.63;;;25.87;33.36
34370;BME280;20635;55.812;37.560;2022-12-10T07:58:22;99206.06;;;25.87;33.37
34370;BME280;20635;55.812;37.560;2022-12-10T08:00:48;99204.88;;;25.88;33.29
34370;BME280;20635;55.812;37.560;2022-12-10T08:03:14;99196.00;;;25.86;33.54
34370;BME280;20635;55.812;37.560;2022-12-10T08:05:40;99193.19;;;25.86;32.47
34370;BME280;20635;55.812;37.560;2022-12-10T08:08:06;99187.59;;;25.86;32.63
34370;BME280;20635;55.812;37.560;2022-12-10T08:10:36;99197.63;;;25.87;32.89
34370;BME280;20635;55.812;37.560;2022-12-10T08:13:03;99199.63;;;25.87;32.70
34370;BME280;20635;55.812;37.560;2022-12-10T08:15:30;99197.63;;;25.87;32.84
34370;BME280;20635;55.812;37.560;2022-12-10T08:17:57;99194.81;;;25.87;32.88
34370;BME280;20635;55.812;37.560;2022-12-10T08:20:23;99197.63;;;25.87;32.71
34370;BME280;20635;55.812;37.560;2022-12-10T08:22:50;99200.09;;;25.89;32.93
34370;BME280;20635;55.812;37.560;2022-12-10T08:25:16;99195.66;;;25.88;32.87
34370;BME280;20635;55.812;37.560;2022-12-10T08:27:42;99190.84;;;25.88;32.63
34370;BME280;20635;55.812;37.560;2022-12-10T08:30:08;99192.50;;;25.89;32.78
34370;BME280;20635;55.812;37.560;2022-12-10T08:32:34;99197.28;;;25.89;32.81
34370;BME280;20635;55.812;37.560;2022-12-10T08:35:00;99196.94;;;25.90;32.72
34370;BME280;20635;55.812;37.560;2022-12-10T08:37:26;99191.34;;;25.90;32.72
34370;BME280;20635;55.812;37.560;2022-12-10T08:39:52;99183.72;;;25.91;32.62
34370;BME280;20635;55.812;37.560;2022-12-10T08:42:18;99184.53;;;25.91;32.74
34370;BME280;20635;55.812;37.560;2022-12-10T08:44:44;99179.75;;;25.92;32.89
34370;BME280;20635;55.812;37.560;2022-12-10T08:47:09;99178.94;;;25.91;32.57
34370;BME280;20635;55.812;37.560;2022-12-10T08:49:36;99178.94;;;25.91;32.48
34370;BME280;20635;55.812;37.560;2022-12-10T08:52:01;99184.19;;;25.93;32.42
34370;BME280;20635;55.812;37.560;2022-12-10T08:54:27;99189.81;;;25.93;32.49
34370;BME280;20635;55.812;37.560;2022-12-10T08:56:53;99184.19;;;25.93;32.36
34370;BME280;20635;55.812;37.560;2022-12-10T08:59:19;99176.59;;;25.93;32.41
34370;BME280;20635;55.812;37.560;2022-12-10T09:01:45;99175.75;;;25.93;32.53
34370;BME280;20635;55.812;37.560;2022-12-10T09:04:11;99181.06;;;25.94;32.11
34370;BME280;20635;55.812;37.560;2022-12-10T09:06:38;99177.75;;;25.92;32.04
34370;BME280;20635;55.812;37.560;2022-12-10T09:09:04;99174.63;;;25.94;32.42
34370;BME280;20635;55.812;37.560;2022-12-10T09:11:32;99180.22;;;25.94;32.28
34370;BME280;20635;55.812;37.560;2022-12-10T09:13:58;99185.84;;;25.94;32.21
34370;BME280;20635;55.812;37.560;2022-12-10T09:16:30;99179.88;;;25.95;32.19
34370;BME280;20635;55.812;37.560;2022-12-10T09:18:57;99183.84;;;25.94;32.20
34370;BME280;20635;55.812;37.560;2022-12-10T09:21:23;99176.25;;;25.95;32.15
34370;BME280;20635;55.812;37.560;2022-12-10T09:23:49;99177.06;;;25.95;31.99
34370;BME280;20635;55.812;37.560;2022-12-10T09:26:16;99180.69;;;25.96;32.09
34370;BME280;20635;55.812;37.560;2022-12-10T09:28:44;99175.06;;;25.96;32.06
34370;BME280;20635;55.812;37.560;2022-12-10T09:31:12;99178.69;;;25.96;32.04
34370;BME280;20635;55.812;37.560;2022-12-10T09:33:38;99175.06;;;25.96;31.69
34370;BME280;20635;55.812;37.560;2022-12-10T09:36:05;99168.28;;;25.97;31.94
34370;BME280;20635;55.812;37.560;2022-12-10T09:38:37;99173.91;;;25.97;31.93
34370;BME280;20635;55.812;37.560;2022-12-10T09:41:10;99168.66;;;25.95;31.79
34370;BME280;20635;55.812;37.560;2022-12-10T09:43:52;99169.59;;;25.99;32.06
34370;BME280;20635;55.812;37.560;2022-12-10T09:51:29;99167.13;;;25.98;31.63
34370;BME280;20635;55.812;37.560;2022-12-10T09:53:57;99165.47;;;25.97;31.86
34370;BME280;20635;55.812;37.560;2022-12-10T09:56:34;99157.53;;;25.99;31.74
34370;BME280;20635;55.812;37.560;2022-12-10T09:59:15;99159.19;;;26.00;31.83
34370;BME280;20635;55.812;37.560;2022-12-10T10:01:43;99157.88;;;25.97;31.66
34370;BME280;20635;55.812;37.560;2022-12-10T10:04:10;99157.06;;;25.97;31.70
34370;BME280;20635;55.812;37.560;2022-12-10T10:06:36;99157.88;;;25.97;31.59
34370;BME280;20635;55.812;37.560;2022-12-10T10:09:04;99154.75;;;25.99;31.57
34370;BME280;20635;55.812;37.560;2022-12-10T10:11:33;99155.88;;;25.98;31.61
34370;BME280;20635;55.812;37.560;2022-12-10T10:14:10;99155.56;;;25.99;31.67
34370;BME280;20635;55.812;37.560;2022-12-10T10:16:45;99157.19;;;26.00;31.49
34370;BME280;20635;55.812;37.560;2022-12-10T10:19:15;99148.31;;;25.98;31.40
34370;BME280;20635;55.812;37.560;2022-12-10T10:21:46;99157.53;;;25.99;31.60
34370;BME280;20635;55.812;37.560;2022-12-10T10:24:21;99153.91;;;25.98;31.49
34370;BME280;20635;55.812;37.560;2022-12-10T10:26:48;99141.84;;;25.98;31.51
34370;BME280;20635;55.812;37.560;2022-12-10T10:29:20;99147.13;;;25.99;31.49
34370;BME280;20635;55.812;37.560;2022-12-10T10:31:47;99143.50;;;25.99;31.51
34370;BME280;20635;55.812;37.560;2022-12-10T10:34:22;99141.97;;;26.01;31.39
34370;BME280;20635;55.812;37.560;2022-12-10T10:36:56;99134.72;;;26.00;31.37
34370;BME280;20635;55.812;37.560;2022-12-10T10:39:28;99135.91;;;25.99;31.45
34370;BME280;20635;55.812;37.560;2022-12-10T10:41:56;99138.72;;;25.99;31.26
34370;BME280;20635;55.812;37.560;2022-12-10T10:44:26;99133.09;;;25.99;31.24
34370;BME280;20635;55.812;37.560;2022-12-10T10:46:54;99123.84;;;25.99;31.24
34370;BME280;20635;55.812;37.560;2022-12-10T10:49:27;99117.06;;;26.00;31.24
34370;BME280;20635;55.812;37.560;2022-12-10T10:51:58;99110.63;;;25.99;31.12
34370;BME280;20635;55.812;37.560;2022-12-10T10:54:33;99109.09;;;26.02;31.41
34370;BME280;20635;55.812;37.560;2022-12-10T10:57:12;99109.91;;;26.02;31.26
34370;BME280;20635;55.812;37.560;2022-12-10T10:59:39;99102.22;;;25.99;31.12
34370;BME280;20635;55.812;37.560;2022-12-10T11:07:32;99096.25;;;26.01;31.14
34370;BME280;20635;55.812;37.560;2022-12-10T11:09:59;99085.00;;;26.01;30.99
34370;BME280;20635;55.812;37.560;2022-12-10T11:12:56;99090.75;;;26.04;31.18
34370;BME280;20635;55.812;37.560;2022-12-10T11:17:53;99074.59;;;26.01;31.06
34370;BME280;20635;55.812;37.560;2022-12-10T11:20:22;99067.34;;;26.00;31.08
34370;BME280;20635;55.812;37.560;2022-12-10T11:22:57;99074.59;;;26.01;31.07
34370;BME280;20635;55.812;37.560;2022-12-10T11:25:54;99071.09;;;26.04;31.04
34370;BME280;20635;55.812;37.560;2022-12-10T11:31:13;99067.00;;;26.02;30.98
34370;BME280;20635;55.812;37.560;2022-12-10T11:33:46;99066.16;;;26.01;31.01
34370;BME280;20635;55.812;37.560;2022-12-10T11:36:51;99069.09;;;26.05;30.98
34370;BME280;20635;55.812;37.560;2022-12-10T11:42:07;99059.38;;;26.02;30.95
34370;BME280;20635;55.812;37.560;2022-12-10T11:44:52;99051.81;;;26.03;30.81
34370;BME280;20635;55.812;37.560;2022-12-10T11:52:56;99045.81;;;26.04;30.85
34370;BME280;20635;55.812;37.560;2022-12-10T12:01:02;99044.19;;;26.03;30.88
34370;BME280;20635;55.812;37.560;2022-12-10T12:14:28;99042.53;;;26.02;30.68
34370;BME280;20635;55.812;37.560;2022-12-10T12:17:04;99040.56;;;26.03;30.73
34370;BME280;20635;55.812;37.560;2022-12-10T12:19:39;99036.59;;;26.04;30.62
34370;BME280;20635;55.812;37.560;2022-12-10T12:22:22;99038.22;;;26.05;30.78
34370;BME280;20635;55.812;37.560;2022-12-10T12:24:52;99034.97;;;26.03;30.64
34370;BME280;20635;55.812;37.560;2022-12-10T12:32:51;99034.22;;;26.06;30.74
34370;BME280;20635;55.812;37.560;2022-12-10T12:37:59;99026.16;;;26.04;30.65
34370;BME280;20635;55.812;37.560;2022-12-10T12:40:30;99031.78;;;26.04;30.50
34370;BME280;20635;55.812;37.560;2022-12-10T12:43:24;99026.16;;;26.04;30.54
34370;BME280;20635;55.812;37.560;2022-12-10T12:45:52;99020.56;;;26.04;30.60
34370;BME280;20635;55.812;37.560;2022-12-10T12:48:28;99026.16;;;26.04;30.41
34370;BME280;20635;55.812;37.560;2022-12-10T12:51:01;99026.16;;;26.04;30.38
34370;BME280;20635;55.812;37.560;2022-12-10T12:53:28;99021.75;;;26.03;30.38
34370;BME280;20635;55.812;37.560;2022-12-10T13:01:25;99030.59;;;26.05;30.35
34370;BME280;20635;55.812;37.560;2022-12-10T13:03:56;99026.16;;;26.04;30.39
34370;BME280;20635;55.812;37.560;2022-12-10T13:06:26;99026.16;;;26.04;30.34
34370;BME280;20635;55.812;37.560;2022-12-10T13:08:57;99028.97;;;26.04;30.42
34370;BME280;20635;55.812;37.560;2022-12-10T13:11:34;99036.34;;;26.09;30.35
34370;BME280;20635;55.812;37.560;2022-12-10T13:19:29;99022.31;;;26.09;30.39
34370;BME280;20635;55.812;37.560;2022-12-10T13:22:03;99025.47;;;26.08;30.41
34370;BME280;20635;55.812;37.560;2022-12-10T13:32:43;99027.56;;;26.11;30.44
34370;BME280;20635;55.812;37.560;2022-12-10T13:43:36;99010.38;;;26.12;30.20
34370;BME280;20635;55.812;37.560;2022-12-10T13:46:34;99007.44;;;26.09;30.34
34370;BME280;20635;55.812;37.560;2022-12-10T13:49:02;99010.59;;;26.07;30.31
34370;BME280;20635;55.812;37.560;2022-12-10T13:51:39;99013.06;;;26.09;30.33
34370;BME280;20635;55.812;37.560;2022-12-10T13:59:30;99002.41;;;26.14;30.32
34370;BME280;20635;55.812;37.560;2022-12-10T14:07:25;98996.22;;;26.09;30.05
34370;BME280;20635;55.812;37.560;2022-12-10T14:09:57;99002.28;;;26.11;30.19
34370;BME280;20635;55.812;37.560;2022-12-10T14:12:37;99005.09;;;26.11;30.24
34370;BME280;20635;55.812;37.560;2022-12-10T14:15:15;98990.25;;;26.10;30.22
34370;BME280;20635;55.812;37.560;2022-12-10T14:17:44;98992.59;;;26.08;30.02
34370;BME280;20635;55.812;37.560;2022-12-10T14:20:18;98983.81;;;26.10;30.03
34370;BME280;20635;55.812;37.560;2022-12-10T14:22:55;98981.81;;;26.10;30.08
34370;BME280;20635;55.812;37.560;2022-12-10T14:25:46;98982.19;;;26.09;29.93
34370;BME280;20635;55.812;37.560;2022-12-10T14:28:14;98983.81;;;26.10;30.01
34370;BME280;20635;55.812;37.560;2022-12-10T14:30:47;98976.19;;;26.10;30.10
34370;BME280;20635;55.812;37.560;2022-12-10T14:33:16;98972.59;;;26.10;29.79
34370;BME280;20635;55.812;37.560;2022-12-10T14:35:47;98964.97;;;26.10;30.15
34370;BME280;20635;55.812;37.560;2022-12-10T14:38:31;98964.63;;;26.12;29.94
34370;BME280;20635;55.812;37.560;2022-12-10T14:40:59;98960.16;;;26.11;29.96
34370;BME280;20635;55.812;37.560;2022-12-10T14:43:37;98958.66;;;26.13;30.03
34370;BME280;20635;55.812;37.560;2022-12-10T14:46:05;98965.78;;;26.11;30.00
34370;BME280;20635;55.812;37.560;2022-12-10T14:48:39;98950.59;;;26.12;30.14
34370;BME280;20635;55.812;37.560;2022-12-10T14:51:14;98945.81;;;26.12;30.10
34370;BME280;20635;55.812;37.560;2022-12-10T14:53:40;98943.31;;;26.11;29.91